createdAt,value
2022-08-17T00:02:56.342Z,98971.94
2022-08-17T00:05:25.111Z,98975.59
2022-08-17T00:07:52.930Z,98975.88
2022-08-17T00:10:20.890Z,98978.13
2022-08-17T00:12:49.036Z,98983.69
2022-08-17T00:15:17.923Z,98980.78
2022-08-17T00:20:18.692Z,98974.56
2022-08-17T00:25:20.782Z,98986.56
2022-08-17T00:27:48.791Z,98979.22
2022-08-17T00:30:16.725Z,98979.91
2022-08-17T00:40:44.586Z,98973.31
2022-08-17T00:45:47.428Z,98966.47
2022-08-17T00:48:29.953Z,98974.03
2022-08-17T00:51:06.685Z,98963.72
2022-08-17T00:53:41.950Z,98967.47
2022-08-17T00:58:42.867Z,98971.28
2022-08-17T01:01:12.473Z,98960.53
2022-08-17T01:03:49.659Z,98964.09
2022-08-17T01:08:47.601Z,98957.94
2022-08-17T01:11:15.507Z,98961.91
2022-08-17T01:13:45.073Z,98968.59
2022-08-17T01:18:48.755Z,98957.63
2022-08-17T01:21:23.488Z,98952.16
2022-08-17T01:23:52.724Z,98952.31
2022-08-17T01:26:21.384Z,98954.31
2022-08-17T01:31:24.713Z,98961.03
2022-08-17T01:33:52.578Z,98953.16
2022-08-17T01:36:20.488Z,98951.13
2022-08-17T01:38:48.320Z,98962.94
2022-08-17T01:41:18.544Z,98966.13
2022-08-17T01:43:50.773Z,98965.13
2022-08-17T01:46:23.711Z,98963.53
2022-08-17T01:48:51.727Z,98966.81
2022-08-17T01:51:20.581Z,98974.00
2022-08-17T01:53:52.392Z,98975.47
2022-08-17T01:56:24.419Z,98974.72
2022-08-17T01:58:52.626Z,98979.25
2022-08-17T02:01:22.996Z,98978.44
2022-08-17T02:03:53.438Z,98975.00
2022-08-17T02:06:28.486Z,98969.97
2022-08-17T02:09:03.244Z,98973.69
2022-08-17T02:11:34.654Z,98970.34
2022-08-17T02:14:04.123Z,98971.44
2022-08-17T02:19:07.193Z,98962.44
2022-08-17T02:21:35.106Z,98974.56
2022-08-17T02:24:03.485Z,98969.75
2022-08-17T02:26:33.180Z,98963.59
2022-08-17T02:29:01.062Z,98961.69
2022-08-17T02:31:31.156Z,98965.47
2022-08-17T02:34:04.093Z,98966.38
2022-08-17T02:36:35.251Z,98959.69
2022-08-17T02:39:03.712Z,98954.47
2022-08-17T02:41:33.107Z,98951.25
2022-08-17T02:44:01.205Z,98957.16
2022-08-17T02:46:31.114Z,98954.28
2022-08-17T02:48:59.040Z,98958.25
2022-08-17T02:51:27.640Z,98958.28
2022-08-17T02:54:38.853Z,98963.66
2022-08-17T02:56:45.101Z,98952.28
2022-08-17T02:59:12.964Z,98958.06
2022-08-17T03:01:40.988Z,98955.16
2022-08-17T03:04:09.148Z,98949.03
2022-08-17T03:06:37.492Z,98953.53
2022-08-17T03:09:05.664Z,98952.78
2022-08-17T03:11:33.525Z,98955.50
2022-08-17T03:14:02.710Z,98948.34
2022-08-17T03:16:30.538Z,98953.88
2022-08-17T03:18:58.390Z,98943.47
2022-08-17T03:21:26.221Z,98950.09
2022-08-17T03:23:54.699Z,98949.91
2022-08-17T03:28:50.575Z,98949.72
2022-08-17T03:31:21.482Z,98953.41
2022-08-17T03:33:49.511Z,98955.03
2022-08-17T03:36:17.586Z,98960.13
2022-08-17T03:38:45.413Z,98959.09
2022-08-17T03:41:14.027Z,98963.88
2022-08-17T03:43:41.876Z,98957.75
2022-08-17T03:46:35.319Z,98967.38
2022-08-17T03:49:23.875Z,98960.22
2022-08-17T03:52:09.592Z,98964.78
2022-08-17T03:54:55.714Z,98963.19
2022-08-17T03:57:23.966Z,98970.59
2022-08-17T03:59:52.216Z,98970.09
2022-08-17T04:02:23.112Z,98976.16
2022-08-17T04:04:52.703Z,98977.72
2022-08-17T04:07:21.257Z,98977.72
2022-08-17T04:09:49.873Z,98976.16
2022-08-17T04:12:19.709Z,98970.34
2022-08-17T04:14:53.187Z,98973.00
2022-08-17T04:17:24.305Z,98982.84
2022-08-17T04:19:54.543Z,98987.41
2022-08-17T04:22:31.205Z,98982.06
2022-08-17T04:25:05.267Z,98986.28
2022-08-17T04:27:33.355Z,98983.38
2022-08-17T04:30:01.299Z,98979.91
2022-08-17T04:33:04.896Z,98987.44
2022-08-17T04:35:22.016Z,98983.72
2022-08-17T04:37:50.280Z,98982.41
2022-08-17T04:40:44.944Z,98985.81
2022-08-17T04:43:14.414Z,98987.66
2022-08-17T04:45:55.507Z,98990.09
2022-08-17T04:48:29.702Z,98995.91
2022-08-17T04:51:09.849Z,99002.50
2022-08-17T04:53:39.019Z,98996.91
2022-08-17T04:56:07.497Z,99003.00
2022-08-17T04:58:39.995Z,99001.19
2022-08-17T05:01:08.514Z,99007.56
2022-08-17T05:03:36.556Z,99010.75
2022-08-17T05:06:06.105Z,99012.03
2022-08-17T05:08:34.039Z,99008.25
2022-08-17T05:11:01.924Z,99004.25
2022-08-17T05:13:30.348Z,99005.59
2022-08-17T05:16:00.035Z,99010.91
2022-08-17T05:18:29.572Z,99008.81
2022-08-17T05:20:57.487Z,99016.50
2022-08-17T05:23:29.229Z,99015.09
2022-08-17T05:26:12.489Z,99014.56
2022-08-17T05:28:53.815Z,99014.00
2022-08-17T05:31:22.102Z,99019.88
2022-08-17T05:33:50.042Z,99017.50
2022-08-17T05:36:41.553Z,99006.56
2022-08-17T05:39:07.622Z,99010.47
2022-08-17T05:41:35.528Z,99003.06
2022-08-17T05:44:05.463Z,99007.81
2022-08-17T05:46:41.016Z,99015.44
2022-08-17T05:49:09.714Z,99015.91
2022-08-17T05:52:02.346Z,99016.31
2022-08-17T05:54:42.475Z,99013.78
2022-08-17T05:57:30.537Z,99017.34
2022-08-17T06:00:07.270Z,99007.19
2022-08-17T06:02:51.333Z,98999.41
2022-08-17T06:05:34.269Z,99004.47
2022-08-17T06:08:10.900Z,99000.13
2022-08-17T06:10:48.261Z,98986.47
2022-08-17T06:13:22.649Z,98987.19
2022-08-17T06:15:57.646Z,98985.78
2022-08-17T06:18:30.245Z,98990.50
2022-08-17T06:21:02.866Z,98993.66
2022-08-17T06:23:35.559Z,99002.78
2022-08-17T06:26:16.201Z,99002.69
2022-08-17T06:28:52.161Z,98998.03
2022-08-17T06:31:23.135Z,98993.44
2022-08-17T06:33:51.533Z,99004.25
2022-08-17T06:36:31.553Z,99011.78
2022-08-17T06:39:09.120Z,99011.94
2022-08-17T06:41:49.510Z,99017.13
2022-08-17T06:44:42.280Z,99024.22
2022-08-17T06:47:28.681Z,99022.47
2022-08-17T06:52:46.026Z,99021.16
2022-08-17T06:55:21.425Z,99019.13
2022-08-17T06:57:54.455Z,99019.09
2022-08-17T07:00:25.020Z,99015.91
2022-08-17T07:02:58.852Z,99020.03
2022-08-17T07:10:42.701Z,99039.75
2022-08-17T07:13:39.146Z,99041.31
2022-08-17T07:16:18.247Z,99046.28
2022-08-17T07:18:46.947Z,99051.38
2022-08-17T07:21:27.336Z,99051.06
2022-08-17T07:24:30.292Z,99062.09
2022-08-17T07:27:07.587Z,99064.84
2022-08-17T07:29:41.002Z,99053.16
2022-08-17T07:32:11.101Z,99055.53
2022-08-17T07:35:01.679Z,99051.84
2022-08-17T07:37:32.358Z,99040.19
2022-08-17T07:40:15.503Z,99032.44
2022-08-17T07:42:46.631Z,99023.66
2022-08-17T07:45:30.311Z,99031.31
2022-08-17T07:48:15.878Z,99036.88
2022-08-17T07:50:46.116Z,99044.63
2022-08-17T07:53:19.531Z,99050.25
2022-08-17T07:58:18.403Z,99047.97
2022-08-17T08:03:34.118Z,99039.81
2022-08-17T08:06:03.791Z,99037.34
2022-08-17T08:08:35.114Z,99041.19
2022-08-17T08:11:07.776Z,99041.28
2022-08-17T08:13:40.474Z,99044.91
2022-08-17T08:19:01.195Z,99029.28
2022-08-17T08:26:57.763Z,99046.94
2022-08-17T08:29:34.001Z,99043.78
2022-08-17T08:35:01.386Z,99025.22
2022-08-17T08:37:43.556Z,99015.81
2022-08-17T08:40:29.902Z,99010.31
2022-08-17T08:43:09.359Z,99010.53
2022-08-17T08:45:45.800Z,99019.38
2022-08-17T08:51:27.704Z,99026.13
2022-08-17T08:54:02.580Z,99027.69
2022-08-17T08:56:38.354Z,99021.25
2022-08-17T08:59:17.900Z,99022.63
2022-08-17T09:05:12.873Z,99013.88
2022-08-17T09:07:43.617Z,99024.22
2022-08-17T09:10:19.596Z,99029.88
2022-08-17T09:12:56.417Z,99018.25
2022-08-17T09:28:38.397Z,99019.94
2022-08-17T09:33:45.348Z,99029.56
2022-08-17T09:41:34.438Z,99010.16
2022-08-17T09:49:32.031Z,99010.50
2022-08-17T09:52:04.622Z,99017.66
2022-08-17T09:57:31.729Z,99012.44
2022-08-17T10:00:13.636Z,99005.38
2022-08-17T10:10:56.715Z,99021.13
2022-08-17T10:13:35.489Z,99021.59
2022-08-17T10:32:23.867Z,99014.47
2022-08-17T10:40:53.139Z,99014.84
2022-08-17T10:43:32.982Z,99009.88
2022-08-17T10:49:25.699Z,99014.09
2022-08-17T10:51:55.751Z,99015.28
2022-08-17T11:08:31.397Z,99024.94
2022-08-17T11:16:43.125Z,99020.94
2022-08-17T11:30:36.048Z,99028.38
2022-08-17T11:38:58.951Z,99031.31
2022-08-17T11:41:37.257Z,99044.63
2022-08-17T11:47:28.812Z,99049.78
2022-08-17T11:50:31.907Z,99052.75
2022-08-17T11:52:59.765Z,99055.50
2022-08-17T12:03:54.440Z,99063.56
2022-08-17T12:06:36.237Z,99063.16
2022-08-17T12:11:56.359Z,99064.91
2022-08-17T12:15:08.509Z,99069.72
2022-08-17T12:20:16.339Z,99078.56
2022-08-17T12:25:33.037Z,99089.03
2022-08-17T12:28:04.987Z,99084.69
2022-08-17T12:33:03.966Z,99094.91
2022-08-17T12:38:28.177Z,99116.41
2022-08-17T12:43:32.811Z,99120.03
2022-08-17T12:46:15.210Z,99128.22
2022-08-17T12:48:59.344Z,99122.59
2022-08-17T12:51:30.056Z,99127.16
2022-08-17T12:53:58.082Z,99124.25
2022-08-17T12:56:26.052Z,99130.13
2022-08-17T12:58:55.673Z,99119.09
2022-08-17T13:01:25.227Z,99112.31
2022-08-17T13:03:59.744Z,99114.47
2022-08-17T13:06:31.559Z,99108.81
2022-08-17T13:09:10.743Z,99101.50
2022-08-17T13:11:48.691Z,99098.94
2022-08-17T13:14:18.479Z,99096.59
2022-08-17T13:22:13.449Z,99095.06
2022-08-17T13:24:54.523Z,99098.78
2022-08-17T13:29:55.868Z,99105.31
2022-08-17T13:32:34.974Z,99107.06
2022-08-17T13:35:12.031Z,99105.91
2022-08-17T13:37:58.768Z,99099.75
2022-08-17T13:40:31.337Z,99094.75
2022-08-17T13:42:59.605Z,99091.63
2022-08-17T13:45:44.804Z,99084.38
2022-08-17T13:48:20.892Z,99073.94
2022-08-17T13:51:04.130Z,99064.84
2022-08-17T13:53:50.539Z,99052.09
2022-08-17T13:56:38.806Z,99049.94
2022-08-17T13:59:11.669Z,99048.34
2022-08-17T14:01:42.571Z,99043.88
2022-08-17T14:04:12.975Z,99054.78
2022-08-17T14:06:52.251Z,99049.44
2022-08-17T14:09:26.677Z,99046.19
2022-08-17T14:11:55.986Z,99050.19
2022-08-17T14:14:24.498Z,99044.03
2022-08-17T14:19:22.119Z,99045.31
2022-08-17T14:24:25.354Z,99016.97
2022-08-17T14:26:53.943Z,99022.38
2022-08-17T14:29:22.474Z,99028.09
2022-08-17T14:34:22.022Z,99032.25
2022-08-17T14:46:46.468Z,99010.34
2022-08-17T14:49:15.662Z,98993.94
2022-08-17T14:51:44.018Z,98994.69
2022-08-17T14:54:32.977Z,99001.97
2022-08-17T14:59:53.409Z,98980.75
2022-08-17T15:05:00.884Z,98978.13
2022-08-17T15:07:31.092Z,98977.13
2022-08-17T15:10:00.868Z,98970.63
2022-08-17T15:15:04.700Z,98971.97
2022-08-17T15:17:44.430Z,98963.69
2022-08-17T15:20:15.984Z,98961.91
2022-08-17T15:22:45.346Z,98967.66
2022-08-17T15:27:44.923Z,98973.16
2022-08-17T15:30:13.822Z,98979.78
2022-08-17T15:32:50.773Z,98979.06
2022-08-17T15:37:55.917Z,98971.91
2022-08-17T15:42:53.099Z,98971.91
2022-08-17T15:47:55.020Z,98988.72
2022-08-17T15:52:57.974Z,98972.97
2022-08-17T15:55:27.726Z,98969.00
2022-08-17T16:35:47.238Z,98971.47
2022-08-17T16:53:11.374Z,98948.69
2022-08-17T16:55:39.954Z,98962.69
2022-08-17T17:08:39.480Z,98950.50
2022-08-17T17:24:17.198Z,98948.38
2022-08-17T17:27:12.270Z,98942.59
2022-08-17T17:32:32.428Z,98947.41
2022-08-17T17:35:08.015Z,98939.84
2022-08-17T17:37:36.736Z,98943.16
2022-08-17T17:40:10.541Z,98950.41
2022-08-17T17:42:41.848Z,98935.94
2022-08-17T17:45:17.594Z,98935.94
2022-08-17T17:50:17.944Z,98941.16
2022-08-17T17:53:00.024Z,98937.13
2022-08-17T17:58:20.013Z,98940.75
2022-08-17T18:00:55.258Z,98932.97
2022-08-17T18:03:35.632Z,98928.28
2022-08-17T18:06:20.042Z,98938.00
2022-08-17T18:11:51.660Z,98930.19
2022-08-17T18:14:33.580Z,98921.19
2022-08-17T18:17:02.183Z,98919.75
2022-08-17T18:19:31.585Z,98924.72
2022-08-17T18:22:08.500Z,98931.59
2022-08-17T18:24:44.786Z,98932.59
2022-08-17T18:27:23.305Z,98925.41
2022-08-17T18:29:53.983Z,98929.34
2022-08-17T18:32:35.357Z,98922.94
2022-08-17T18:38:20.363Z,98931.16
2022-08-17T18:43:36.527Z,98919.03
2022-08-17T18:46:28.313Z,98925.28
2022-08-17T18:48:59.504Z,98928.41
2022-08-17T18:51:42.383Z,98934.56
2022-08-17T18:54:20.008Z,98933.53
2022-08-17T18:56:54.631Z,98931.16
2022-08-17T19:02:23.207Z,98932.13
2022-08-17T19:05:13.444Z,98937.28
2022-08-17T19:10:25.079Z,98947.41
2022-08-17T19:13:00.207Z,98952.66
2022-08-17T19:15:36.120Z,98960.28
2022-08-17T19:18:15.453Z,98960.81
2022-08-17T19:23:23.316Z,98963.31
2022-08-17T19:25:58.676Z,98972.38
2022-08-17T19:28:31.033Z,98966.56
2022-08-17T19:31:06.114Z,98973.00
2022-08-17T19:33:34.109Z,98971.63
2022-08-17T19:36:08.484Z,98969.59
2022-08-17T19:38:44.984Z,98964.38
2022-08-17T19:44:12.895Z,98964.38
2022-08-17T19:46:48.575Z,98964.88
2022-08-17T19:49:33.521Z,98966.97
2022-08-17T19:52:26.101Z,98967.66
2022-08-17T19:57:42.470Z,98970.41
2022-08-17T20:00:13.378Z,98970.44
2022-08-17T20:02:49.715Z,98969.97
2022-08-17T20:05:25.978Z,98961.44
2022-08-17T20:07:58.480Z,98960.50
2022-08-17T20:10:40.391Z,98961.91
2022-08-17T20:13:16.114Z,98965.09
2022-08-17T20:15:46.259Z,98954.81
2022-08-17T20:18:23.320Z,98948.19
2022-08-17T20:26:19.306Z,98942.53
2022-08-17T20:29:20.706Z,98945.81
2022-08-17T20:32:25.578Z,98942.94
2022-08-17T20:35:20.829Z,98944.22
2022-08-17T20:37:55.108Z,98939.31
2022-08-17T20:40:27.377Z,98946.69
2022-08-17T20:42:55.294Z,98951.59
2022-08-17T20:48:38.045Z,98970.78
2022-08-17T20:51:27.235Z,98981.41
2022-08-17T20:54:36.984Z,98985.25
2022-08-17T20:57:06.766Z,98995.53
2022-08-17T21:00:07.533Z,98993.19
2022-08-17T21:02:38.144Z,98994.28
2022-08-17T21:05:32.386Z,98999.16
2022-08-17T21:08:14.262Z,98995.34
2022-08-17T21:13:45.076Z,98988.13
2022-08-17T21:16:37.206Z,98993.94
2022-08-17T21:19:22.143Z,99003.81
2022-08-17T21:22:01.254Z,98999.97
2022-08-17T21:24:41.959Z,98987.38
2022-08-17T21:27:27.268Z,99004.34
2022-08-17T21:30:21.956Z,99000.84
2022-08-17T21:33:16.035Z,99003.63
2022-08-17T21:35:51.192Z,99007.75
2022-08-17T21:40:51.784Z,99006.56
2022-08-17T21:43:26.654Z,99005.53
2022-08-17T21:46:01.790Z,99007.13
2022-08-17T21:48:32.414Z,99012.38
2022-08-17T21:51:10.508Z,99013.47
2022-08-17T21:53:44.229Z,99009.81
2022-08-17T21:56:14.166Z,99015.34
2022-08-17T21:58:48.402Z,99004.34
2022-08-17T22:06:34.513Z,99011.88
2022-08-17T22:14:26.067Z,99022.94
2022-08-17T22:22:56.902Z,99009.63
2022-08-17T22:30:33.096Z,99015.06
2022-08-17T22:33:02.948Z,99006.34
2022-08-17T22:35:36.847Z,99013.00
2022-08-17T22:38:33.450Z,99012.44
2022-08-17T22:41:22.834Z,99013.81
2022-08-17T22:43:52.061Z,99018.28
2022-08-17T22:46:22.244Z,99025.44
2022-08-17T22:51:23.239Z,99036.44
2022-08-17T22:54:13.393Z,99033.56
2022-08-17T22:59:46.185Z,99035.84
2022-08-17T23:02:21.748Z,99036.38
2022-08-17T23:04:52.792Z,99040.44
2022-08-17T23:07:21.783Z,99037.75
2022-08-17T23:09:52.810Z,99046.84
2022-08-17T23:15:00.671Z,99051.91
2022-08-17T23:17:33.880Z,99047.16
2022-08-17T23:20:06.154Z,99055.97
2022-08-17T23:25:03.711Z,99055.16
2022-08-17T23:27:31.898Z,99051.00
2022-08-17T23:29:59.957Z,99053.28
2022-08-17T23:32:28.450Z,99042.38
2022-08-17T23:34:59.173Z,99042.88
2022-08-17T23:37:28.478Z,99041.28
2022-08-17T23:39:56.296Z,99042.50
2022-08-17T23:42:25.544Z,99032.97
2022-08-17T23:44:53.379Z,99028.81
2022-08-17T23:49:49.568Z,99039.13
2022-08-17T23:52:22.753Z,99038.84
2022-08-17T23:54:50.635Z,99037.75
2022-08-17T23:57:20.611Z,99041.41
